createdAt,value
2022-10-06T00:00:31.210Z,81.08
2022-10-06T00:03:01.430Z,81.02
2022-10-06T00:05:32.210Z,80.51
2022-10-06T00:08:02.756Z,80.43
2022-10-06T00:10:33.197Z,79.52
2022-10-06T00:13:03.346Z,79.85
2022-10-06T00:15:34.593Z,79.27
2022-10-06T00:18:05.393Z,79.80
2022-10-06T00:20:36.089Z,79.62
2022-10-06T00:23:07.106Z,79.71
2022-10-06T00:25:37.871Z,79.72
2022-10-06T00:28:08.010Z,80.20
2022-10-06T00:30:38.231Z,79.33
2022-10-06T00:33:07.984Z,78.97
2022-10-06T00:35:38.716Z,79.33
2022-10-06T00:38:08.417Z,79.57
2022-10-06T00:40:48.225Z,78.59
2022-10-06T00:43:46.109Z,78.33
2022-10-06T00:46:46.460Z,78.37
2022-10-06T00:49:25.141Z,78.85
2022-10-06T00:52:03.434Z,79.47
2022-10-06T00:54:34.777Z,79.52
2022-10-06T00:57:06.031Z,80.03
2022-10-06T00:59:38.163Z,80.71
2022-10-06T01:02:17.791Z,79.84
2022-10-06T01:04:51.625Z,79.31
2022-10-06T01:07:24.105Z,79.38
2022-10-06T01:09:56.336Z,81.19
2022-10-06T01:12:28.922Z,81.03
2022-10-06T01:14:59.723Z,80.09
2022-10-06T01:17:49.115Z,80.18
2022-10-06T01:20:21.698Z,80.13
2022-10-06T01:23:07.472Z,80.24
2022-10-06T01:25:38.615Z,80.20
2022-10-06T01:28:10.659Z,80.31
2022-10-06T01:30:54.334Z,80.02
2022-10-06T01:33:27.330Z,80.56
2022-10-06T01:35:57.817Z,80.42
2022-10-06T01:38:28.054Z,80.28
2022-10-06T01:41:02.751Z,79.20
2022-10-06T01:43:32.632Z,80.23
2022-10-06T01:46:02.635Z,79.94
2022-10-06T01:48:32.770Z,80.96
2022-10-06T01:51:03.552Z,80.53
2022-10-06T01:53:33.567Z,80.13
2022-10-06T01:56:03.263Z,80.27
2022-10-06T01:58:33.553Z,81.12
2022-10-06T02:01:10.782Z,81.49
2022-10-06T02:03:42.002Z,81.47
2022-10-06T02:06:12.931Z,81.06
2022-10-06T02:08:45.136Z,80.84
2022-10-06T02:11:15.325Z,80.71
2022-10-06T02:13:45.841Z,80.40
2022-10-06T02:16:16.460Z,80.29
2022-10-06T02:18:46.390Z,80.62
2022-10-06T02:21:21.484Z,80.45
2022-10-06T02:23:52.878Z,81.65
2022-10-06T02:26:22.877Z,82.42
2022-10-06T02:28:53.569Z,82.37
2022-10-06T02:31:26.928Z,83.37
2022-10-06T02:33:58.325Z,84.21
2022-10-06T02:36:28.754Z,84.26
2022-10-06T02:38:58.633Z,84.68
2022-10-06T02:41:28.337Z,85.47
2022-10-06T02:43:58.316Z,85.50
2022-10-06T02:46:28.588Z,86.07
2022-10-06T02:48:58.488Z,85.86
2022-10-06T02:51:28.524Z,85.78
2022-10-06T02:53:58.285Z,85.64
2022-10-06T02:56:28.446Z,86.32
2022-10-06T02:58:59.168Z,86.58
2022-10-06T03:01:32.638Z,86.43
2022-10-06T03:04:16.776Z,87.19
2022-10-06T03:06:47.166Z,86.52
2022-10-06T03:09:20.561Z,86.78
2022-10-06T03:11:50.699Z,87.12
2022-10-06T03:14:28.686Z,86.47
2022-10-06T03:16:58.879Z,86.65
2022-10-06T03:19:32.043Z,86.33
2022-10-06T03:22:02.328Z,85.52
2022-10-06T03:24:49.143Z,85.60
2022-10-06T03:27:19.137Z,84.47
2022-10-06T03:29:49.528Z,84.86
2022-10-06T03:32:19.300Z,84.74
2022-10-06T03:34:49.281Z,86.18
2022-10-06T03:37:20.242Z,86.84
2022-10-06T03:39:50.611Z,87.09
2022-10-06T03:42:21.935Z,87.61
2022-10-06T03:44:51.904Z,88.11
2022-10-06T03:47:21.845Z,87.34
2022-10-06T03:49:52.067Z,87.05
2022-10-06T03:52:25.873Z,87.57
2022-10-06T03:54:56.730Z,87.48
2022-10-06T03:57:26.444Z,88.19
2022-10-06T04:00:00.881Z,88.47
2022-10-06T04:02:30.945Z,88.51
2022-10-06T04:05:02.594Z,88.40
2022-10-06T04:07:32.861Z,88.55
2022-10-06T04:10:02.642Z,88.77
2022-10-06T04:12:33.108Z,88.91
2022-10-06T04:15:03.488Z,89.27
2022-10-06T04:17:33.209Z,88.96
2022-10-06T04:20:03.320Z,89.55
2022-10-06T04:22:33.066Z,88.57
2022-10-06T04:25:03.206Z,88.72
2022-10-06T04:27:32.972Z,88.97
2022-10-06T04:30:10.192Z,88.96
2022-10-06T04:32:40.178Z,88.67
2022-10-06T04:35:10.172Z,88.42
2022-10-06T04:37:40.958Z,88.38
2022-10-06T04:40:11.836Z,87.94
2022-10-06T04:42:47.066Z,88.63
2022-10-06T04:45:18.644Z,88.43
2022-10-06T04:47:51.372Z,88.05
2022-10-06T04:50:21.472Z,87.93
2022-10-06T04:53:08.584Z,88.03
2022-10-06T04:55:39.561Z,88.44
2022-10-06T04:58:09.262Z,88.78
2022-10-06T05:00:39.038Z,88.73
2022-10-06T05:03:08.797Z,89.01
2022-10-06T05:05:38.969Z,89.01
2022-10-06T05:08:08.726Z,88.87
2022-10-06T05:10:38.439Z,89.20
2022-10-06T05:13:09.568Z,89.41
2022-10-06T05:15:40.639Z,89.86
2022-10-06T05:18:10.423Z,90.02
2022-10-06T05:20:40.195Z,90.27
2022-10-06T05:23:10.234Z,90.17
2022-10-06T05:25:39.913Z,90.77
2022-10-06T05:28:09.728Z,91.05
2022-10-06T05:30:39.501Z,91.02
2022-10-06T05:33:09.309Z,91.04
2022-10-06T05:35:39.540Z,90.93
2022-10-06T05:38:12.781Z,90.82
2022-10-06T05:40:43.028Z,91.00
2022-10-06T05:43:13.188Z,90.67
2022-10-06T05:45:53.701Z,91.24
2022-10-06T05:48:24.650Z,91.18
2022-10-06T05:51:02.897Z,91.60
2022-10-06T05:53:36.524Z,91.18
2022-10-06T05:56:17.560Z,91.25
2022-10-06T05:58:50.124Z,91.01
2022-10-06T06:01:41.960Z,91.25
2022-10-06T06:04:38.012Z,92.19
2022-10-06T06:07:11.084Z,92.12
2022-10-06T06:09:44.215Z,92.07
2022-10-06T06:12:15.429Z,92.36
2022-10-06T06:15:24.083Z,92.00
2022-10-06T06:17:59.315Z,91.03
2022-10-06T06:20:29.306Z,92.12
2022-10-06T06:22:59.044Z,91.97
2022-10-06T06:25:30.703Z,91.82
2022-10-06T06:28:01.834Z,92.30
2022-10-06T06:30:31.695Z,92.51
2022-10-06T06:33:01.532Z,91.80
2022-10-06T06:35:31.246Z,91.68
2022-10-06T06:38:01.515Z,91.75
2022-10-06T06:40:32.663Z,91.77
2022-10-06T06:43:02.919Z,91.92
2022-10-06T06:45:41.216Z,92.08
2022-10-06T06:48:34.541Z,91.75
2022-10-06T06:51:05.604Z,91.47
2022-10-06T06:53:36.518Z,91.93
2022-10-06T06:56:07.548Z,92.23
2022-10-06T06:58:38.264Z,91.91
2022-10-06T07:01:16.027Z,91.98
2022-10-06T07:03:57.676Z,91.85
2022-10-06T07:06:32.856Z,91.89
2022-10-06T07:09:05.686Z,91.76
2022-10-06T07:11:41.300Z,91.86
2022-10-06T07:14:19.521Z,91.62
2022-10-06T07:17:09.546Z,92.07
2022-10-06T07:19:53.182Z,91.69
2022-10-06T07:22:44.358Z,91.98
2022-10-06T07:25:26.024Z,92.49
2022-10-06T07:28:04.350Z,92.63
2022-10-06T07:30:40.876Z,92.66
2022-10-06T07:33:22.792Z,92.81
2022-10-06T07:35:54.507Z,93.07
2022-10-06T07:38:27.055Z,93.25
2022-10-06T07:41:19.472Z,93.04
2022-10-06T07:44:08.171Z,92.78
2022-10-06T07:46:40.959Z,92.56
2022-10-06T07:49:18.394Z,92.97
2022-10-06T07:51:50.025Z,93.20
2022-10-06T07:54:24.041Z,92.73
2022-10-06T07:57:16.881Z,93.17
2022-10-06T07:59:48.054Z,93.26
2022-10-06T08:02:20.355Z,93.29
2022-10-06T08:04:51.260Z,93.37
2022-10-06T08:07:21.765Z,92.93
2022-10-06T08:09:51.436Z,93.02
2022-10-06T08:12:38.853Z,93.21
2022-10-06T08:15:12.477Z,93.13
2022-10-06T08:17:42.863Z,93.31
2022-10-06T08:20:14.596Z,93.65
2022-10-06T08:22:44.648Z,93.39
2022-10-06T08:25:15.153Z,93.14
2022-10-06T08:27:47.201Z,92.96
2022-10-06T08:30:19.186Z,92.90
2022-10-06T08:32:48.859Z,92.53
2022-10-06T08:35:18.854Z,92.07
2022-10-06T08:37:50.359Z,91.56
2022-10-06T08:40:20.458Z,91.82
2022-10-06T08:42:54.699Z,91.66
2022-10-06T08:45:42.059Z,91.84
2022-10-06T08:48:17.232Z,91.52
2022-10-06T08:51:02.018Z,91.86
2022-10-06T08:54:04.875Z,92.45
2022-10-06T08:56:49.610Z,94.40
2022-10-06T08:59:19.682Z,95.45
2022-10-06T09:01:52.665Z,95.90
2022-10-06T09:04:32.800Z,96.81
2022-10-06T09:07:11.681Z,97.20
2022-10-06T09:09:49.557Z,97.69
2022-10-06T09:12:33.733Z,98.51
2022-10-06T09:15:22.335Z,97.85
2022-10-06T09:18:03.421Z,98.10
2022-10-06T09:20:44.540Z,98.51
2022-10-06T09:23:38.901Z,98.88
2022-10-06T09:26:33.033Z,98.90
2022-10-06T09:29:02.953Z,99.11
2022-10-06T09:31:39.092Z,98.82
2022-10-06T09:34:30.234Z,99.02
2022-10-06T09:37:04.344Z,99.24
2022-10-06T09:39:39.742Z,99.42
2022-10-06T09:42:28.146Z,98.64
2022-10-06T09:45:07.181Z,99.59
2022-10-06T09:47:43.223Z,99.70
2022-10-06T09:50:28.808Z,99.73
2022-10-06T09:53:07.091Z,99.57
2022-10-06T09:55:40.003Z,99.55
2022-10-06T09:58:24.078Z,99.40
2022-10-06T10:01:06.228Z,99.49
2022-10-06T10:06:43.334Z,98.93
2022-10-06T10:09:33.093Z,99.75
2022-10-06T10:12:33.180Z,99.99
2022-10-06T10:15:05.259Z,98.75
2022-10-06T10:17:46.308Z,99.95
2022-10-06T10:20:35.490Z,99.90
2022-10-06T10:23:31.075Z,99.90
2022-10-06T10:26:34.103Z,99.74
2022-10-06T10:29:45.876Z,99.57
2022-10-06T10:32:27.556Z,99.72
2022-10-06T10:35:20.025Z,99.78
2022-10-06T10:38:28.146Z,99.80
2022-10-06T10:41:14.431Z,99.82
2022-10-06T10:43:44.469Z,99.74
2022-10-06T10:46:28.634Z,99.67
2022-10-06T10:49:03.449Z,99.67
2022-10-06T10:52:03.834Z,99.55
2022-10-06T10:54:53.666Z,99.68
2022-10-06T10:57:30.171Z,99.47
2022-10-06T11:00:05.336Z,99.46
2022-10-06T11:02:36.888Z,99.46
2022-10-06T11:05:31.790Z,99.15
2022-10-06T11:08:12.983Z,99.23
2022-10-06T11:10:51.347Z,99.41
2022-10-06T11:13:36.796Z,99.39
2022-10-06T11:16:52.442Z,99.51
2022-10-06T11:19:36.745Z,99.41
2022-10-06T11:22:11.265Z,99.38
2022-10-06T11:27:56.478Z,99.46
2022-10-06T11:30:27.674Z,99.65
2022-10-06T11:33:17.272Z,99.71
2022-10-06T11:35:49.907Z,99.54
2022-10-06T11:38:38.886Z,99.34
2022-10-06T11:41:27.119Z,99.36
2022-10-06T11:44:09.156Z,99.54
2022-10-06T11:46:54.011Z,99.47
2022-10-06T11:49:33.629Z,99.92
2022-10-06T11:52:09.547Z,99.77
2022-10-06T11:54:46.002Z,99.67
2022-10-06T11:57:29.654Z,99.69
2022-10-06T12:00:06.863Z,99.81
2022-10-06T12:02:38.165Z,99.79
2022-10-06T12:05:35.693Z,99.84
2022-10-06T12:08:03.848Z,99.31
2022-10-06T12:10:36.303Z,99.70
2022-10-06T12:14:12.360Z,99.01
2022-10-06T12:17:05.682Z,99.15
2022-10-06T12:19:34.007Z,99.21
2022-10-06T12:22:38.666Z,99.25
2022-10-06T12:25:29.137Z,99.17
2022-10-06T12:28:14.009Z,99.21
2022-10-06T12:31:41.132Z,98.79
2022-10-06T12:34:42.566Z,98.72
2022-10-06T12:37:30.346Z,98.58
2022-10-06T12:40:18.753Z,98.29
2022-10-06T12:42:48.577Z,98.99
2022-10-06T12:45:18.803Z,98.52
2022-10-06T12:47:49.603Z,98.99
2022-10-06T12:50:26.761Z,99.19
2022-10-06T12:53:06.981Z,99.36
2022-10-06T12:56:04.188Z,98.50
2022-10-06T12:58:35.503Z,98.92
2022-10-06T13:01:14.713Z,98.85
2022-10-06T13:03:53.325Z,98.84
2022-10-06T13:06:27.714Z,98.01
2022-10-06T13:09:14.380Z,98.34
2022-10-06T13:11:44.527Z,98.15
2022-10-06T13:14:17.426Z,98.23
2022-10-06T13:16:48.960Z,97.48
2022-10-06T13:19:30.410Z,97.99
2022-10-06T13:22:04.522Z,98.21
2022-10-06T13:24:35.345Z,98.19
2022-10-06T13:27:05.897Z,98.83
2022-10-06T13:29:35.840Z,98.58
2022-10-06T13:32:17.936Z,98.50
2022-10-06T13:34:47.975Z,98.67
2022-10-06T13:37:17.809Z,98.19
2022-10-06T13:39:47.787Z,98.35
2022-10-06T13:42:22.505Z,98.70
2022-10-06T13:45:05.907Z,98.26
2022-10-06T13:47:36.168Z,98.95
2022-10-06T13:50:20.281Z,98.59
2022-10-06T13:52:51.766Z,98.50
2022-10-06T13:55:32.379Z,98.51
2022-10-06T13:58:05.150Z,98.13
2022-10-06T14:00:57.745Z,97.63
2022-10-06T14:06:19.844Z,98.45
2022-10-06T14:08:58.621Z,98.46
2022-10-06T14:11:31.770Z,98.38
2022-10-06T14:14:04.852Z,98.57
2022-10-06T14:16:35.041Z,98.12
2022-10-06T14:19:06.915Z,98.04
2022-10-06T14:21:46.055Z,97.81
2022-10-06T14:24:21.829Z,97.45
2022-10-06T14:26:52.188Z,97.59
2022-10-06T14:29:23.316Z,98.04
2022-10-06T14:31:53.494Z,96.12
2022-10-06T14:34:23.797Z,97.87
2022-10-06T14:36:53.599Z,97.59
2022-10-06T14:39:23.609Z,97.32
2022-10-06T14:41:53.331Z,97.69
2022-10-06T14:44:23.235Z,97.67
2022-10-06T14:46:53.523Z,97.70
2022-10-06T14:49:23.223Z,97.73
2022-10-06T14:51:56.757Z,97.57
2022-10-06T14:54:27.093Z,97.39
2022-10-06T14:56:57.238Z,97.42
2022-10-06T14:59:27.803Z,96.82
2022-10-06T15:01:57.519Z,95.87
2022-10-06T15:04:29.685Z,95.45
2022-10-06T15:07:17.784Z,95.54
2022-10-06T15:09:47.636Z,95.91
2022-10-06T15:12:17.308Z,96.27
2022-10-06T15:14:47.014Z,96.76
2022-10-06T15:17:16.740Z,96.73
2022-10-06T15:19:46.710Z,96.92
2022-10-06T15:22:17.297Z,96.20
2022-10-06T15:24:51.444Z,97.34
2022-10-06T15:30:14.877Z,96.25
2022-10-06T15:32:45.059Z,95.62
2022-10-06T15:35:14.800Z,95.68
2022-10-06T15:37:44.884Z,95.39
2022-10-06T15:40:14.588Z,94.90
2022-10-06T15:42:44.318Z,95.12
2022-10-06T15:45:14.708Z,95.60
2022-10-06T15:47:44.431Z,95.14
2022-10-06T15:50:18.540Z,94.29
2022-10-06T15:52:49.683Z,94.33
2022-10-06T15:55:19.409Z,96.22
2022-10-06T15:57:49.090Z,96.30
2022-10-06T16:00:18.841Z,94.79
2022-10-06T16:02:49.522Z,95.75
2022-10-06T16:05:37.333Z,92.94
2022-10-06T16:08:07.515Z,92.45
2022-10-06T16:10:37.571Z,92.38
2022-10-06T16:13:07.278Z,93.57
2022-10-06T16:15:36.945Z,91.14
2022-10-06T16:18:07.544Z,91.75
2022-10-06T16:20:37.347Z,91.92
2022-10-06T16:23:07.031Z,92.72
2022-10-06T16:25:36.731Z,90.13
2022-10-06T16:28:06.429Z,91.31
2022-10-06T16:30:36.159Z,91.50
2022-10-06T16:33:06.008Z,90.60
2022-10-06T16:35:35.742Z,90.53
2022-10-06T16:38:05.449Z,90.34
2022-10-06T16:40:35.156Z,89.39
2022-10-06T16:43:04.818Z,88.39
2022-10-06T16:45:34.828Z,85.52
2022-10-06T16:48:06.694Z,86.89
2022-10-06T16:50:37.688Z,86.92
2022-10-06T16:53:07.428Z,86.32
2022-10-06T16:55:37.108Z,88.50
2022-10-06T16:58:07.102Z,88.65
2022-10-06T17:00:36.839Z,88.86
2022-10-06T17:03:06.861Z,87.67
2022-10-06T17:05:38.696Z,87.49
2022-10-06T17:08:08.577Z,87.07
2022-10-06T17:10:38.246Z,86.63
2022-10-06T17:13:07.908Z,87.67
2022-10-06T17:15:37.974Z,85.46
2022-10-06T17:18:07.959Z,88.11
2022-10-06T17:20:38.424Z,87.76
2022-10-06T17:23:08.080Z,89.56
2022-10-06T17:25:38.001Z,90.90
2022-10-06T17:28:07.841Z,90.39
2022-10-06T17:30:37.665Z,92.67
2022-10-06T17:33:07.355Z,91.68
2022-10-06T17:35:38.946Z,92.66
2022-10-06T17:38:10.639Z,92.22
2022-10-06T17:40:47.110Z,92.50
2022-10-06T17:43:17.495Z,92.58
2022-10-06T17:45:47.357Z,91.84
2022-10-06T17:48:17.079Z,92.77
2022-10-06T17:50:59.148Z,92.24
2022-10-06T17:53:29.519Z,92.89
2022-10-06T17:55:59.330Z,93.00
2022-10-06T17:58:31.305Z,93.18
2022-10-06T18:01:10.643Z,93.23
2022-10-06T18:03:43.473Z,94.52
2022-10-06T18:06:16.273Z,93.44
2022-10-06T18:08:49.250Z,93.43
2022-10-06T18:11:41.284Z,94.23
2022-10-06T18:14:15.942Z,93.10
2022-10-06T18:16:55.868Z,92.75
2022-10-06T18:19:33.011Z,93.14
2022-10-06T18:22:11.050Z,90.42
2022-10-06T18:24:42.469Z,89.27
2022-10-06T18:27:14.750Z,90.10
2022-10-06T18:29:44.628Z,89.37
2022-10-06T18:37:56.527Z,91.34
2022-10-06T18:40:26.774Z,91.43
2022-10-06T18:42:58.790Z,91.98
2022-10-06T18:45:48.207Z,92.24
2022-10-06T18:48:36.594Z,92.23
2022-10-06T18:51:06.576Z,92.60
2022-10-06T18:53:38.339Z,91.94
2022-10-06T18:56:08.391Z,93.28
2022-10-06T18:58:42.276Z,93.61
2022-10-06T19:01:13.844Z,93.11
2022-10-06T19:03:44.008Z,92.58
2022-10-06T19:06:13.721Z,91.24
2022-10-06T19:08:43.589Z,91.07
2022-10-06T19:11:31.805Z,91.38
2022-10-06T19:14:01.915Z,91.23
2022-10-06T19:16:32.019Z,90.10
2022-10-06T19:19:05.336Z,89.34
2022-10-06T19:21:38.061Z,90.21
2022-10-06T19:24:09.297Z,87.47
2022-10-06T19:26:43.723Z,85.74
2022-10-06T19:29:16.788Z,87.58
2022-10-06T19:31:49.123Z,84.67
2022-10-06T19:34:20.892Z,85.44
2022-10-06T19:36:53.951Z,86.29
2022-10-06T19:39:26.551Z,88.14
2022-10-06T19:42:14.947Z,88.68
2022-10-06T19:44:45.536Z,83.81
2022-10-06T19:47:16.865Z,79.21
2022-10-06T19:49:47.207Z,85.04
2022-10-06T19:52:17.908Z,77.64
2022-10-06T19:54:51.292Z,73.92
2022-10-06T19:57:21.301Z,67.04
2022-10-06T19:59:52.444Z,71.48
2022-10-06T20:02:22.553Z,78.11
2022-10-06T20:04:52.252Z,81.68
2022-10-06T20:07:22.895Z,83.43
2022-10-06T20:09:52.584Z,84.62
2022-10-06T20:12:24.855Z,86.22
2022-10-06T20:14:56.062Z,85.87
2022-10-06T20:17:25.760Z,85.09
2022-10-06T20:19:57.995Z,85.91
2022-10-06T20:22:28.104Z,86.31
2022-10-06T20:24:58.019Z,88.18
2022-10-06T20:27:27.690Z,86.86
2022-10-06T20:29:58.949Z,88.18
2022-10-06T20:32:29.057Z,88.81
2022-10-06T20:34:59.265Z,90.07
2022-10-06T20:37:28.989Z,90.09
2022-10-06T20:40:16.803Z,90.98
2022-10-06T20:42:50.623Z,91.09
2022-10-06T20:45:22.165Z,91.72
2022-10-06T20:47:53.526Z,92.69
2022-10-06T20:50:23.712Z,92.54
2022-10-06T20:52:55.745Z,92.92
2022-10-06T20:55:26.004Z,93.06
2022-10-06T20:57:55.988Z,93.45
2022-10-06T21:00:25.700Z,93.33
2022-10-06T21:02:55.693Z,93.15
2022-10-06T21:05:25.404Z,93.59
2022-10-06T21:07:55.091Z,93.97
2022-10-06T21:10:24.810Z,94.82
2022-10-06T21:12:56.451Z,95.21
2022-10-06T21:15:26.615Z,95.56
2022-10-06T21:17:56.348Z,95.96
2022-10-06T21:20:26.341Z,96.49
2022-10-06T21:22:56.886Z,96.91
2022-10-06T21:25:26.529Z,97.19
2022-10-06T21:27:56.884Z,97.36
2022-10-06T21:30:27.023Z,97.57
2022-10-06T21:32:56.707Z,97.84
2022-10-06T21:35:26.618Z,97.94
2022-10-06T21:37:56.262Z,98.10
2022-10-06T21:40:25.987Z,98.24
2022-10-06T21:42:55.680Z,98.27
2022-10-06T21:45:30.845Z,98.54
2022-10-06T21:48:02.786Z,98.66
2022-10-06T21:50:32.561Z,98.76
2022-10-06T21:53:02.304Z,98.80
2022-10-06T21:55:31.992Z,98.78
2022-10-06T21:58:02.387Z,98.81
2022-10-06T22:00:32.042Z,98.95
2022-10-06T22:03:01.800Z,99.17
2022-10-06T22:05:31.562Z,98.99
2022-10-06T22:08:01.289Z,99.41
2022-10-06T22:10:31.025Z,99.54
2022-10-06T22:13:00.764Z,99.46
2022-10-06T22:15:30.438Z,99.39
2022-10-06T22:18:00.098Z,99.43
2022-10-06T22:20:33.214Z,99.70
2022-10-06T22:23:05.007Z,99.70
2022-10-06T22:25:35.298Z,99.58
2022-10-06T22:28:05.121Z,99.67
2022-10-06T22:30:34.776Z,99.63
2022-10-06T22:33:04.475Z,99.69
2022-10-06T22:35:34.245Z,99.71
2022-10-06T22:38:03.933Z,99.97
2022-10-06T22:40:33.782Z,99.91
2022-10-06T22:43:03.455Z,99.99
2022-10-06T22:45:33.221Z,99.95
2022-10-06T22:48:02.968Z,99.99
2022-10-06T22:50:32.841Z,99.99
2022-10-06T22:53:02.556Z,99.99
2022-10-06T22:55:32.366Z,99.99
2022-10-06T22:58:02.241Z,99.99
2022-10-06T23:00:31.969Z,99.99
2022-10-06T23:03:01.834Z,99.99
2022-10-06T23:05:31.610Z,99.99
2022-10-06T23:08:01.976Z,99.99
2022-10-06T23:10:32.147Z,99.99
2022-10-06T23:13:02.833Z,99.99
2022-10-06T23:15:32.526Z,99.99
2022-10-06T23:18:02.200Z,99.99
2022-10-06T23:20:31.959Z,99.99
2022-10-06T23:23:01.708Z,99.99
2022-10-06T23:25:31.511Z,99.99
2022-10-06T23:28:01.203Z,99.99
2022-10-06T23:30:30.903Z,99.99
2022-10-06T23:33:00.576Z,99.99
2022-10-06T23:35:30.486Z,99.99
2022-10-06T23:38:00.180Z,99.99
2022-10-06T23:40:29.841Z,99.99
2022-10-06T23:43:00.202Z,99.99
2022-10-06T23:45:29.981Z,99.99
2022-10-06T23:48:01.242Z,99.99
2022-10-06T23:50:31.602Z,99.99
2022-10-06T23:53:01.331Z,99.99
2022-10-06T23:55:31.052Z,99.99
2022-10-06T23:58:00.803Z,99.99
